Lick Creek, Illinois
Current Conditions -  °F | °C
As of 10:15 PM on Wednesday 28 Jan 2015 (Local Time) from KMWA Reporting Station
Clear Clear  
Wind Chill: 39°   Ceiling: Unl
Heat Index: 46°   Visibility: 10mi
Dew Point: 32°   Wind: 18mph
Humidity: 57%   Direction: 180°S
Pressure: 29.97"   Gusts: 26mph
Location:  37.4664°N, 88.9884°W
Report Text: KMWA 290415Z AUTO 18016G23KT 10SM CLR 08/M00 A2997 RMK AO2
Loading
Personal Weather Stations






























Interactive Weather Map New forecast layout! Learn more

10-Day Weather Forecast

Advertisements
Track Severe Weather on mobile